Time;durP1;ratioP1;P1;durP2;ratioP2;P2;SDS_P1;SDS_P2;PMS_P1;PMS_P2;Temp;Humidity;BMP_temperature;BMP_pressure;BME280_temperature;BME280_humidity;BME280_pressure;Samples;Min_cycle;Max_cycle;Signal;HPM_P1;HPM_P2
2023/05/05 00:00:32;;;;;;;1.80;1.40;;;20.50;89.90;;;;;;4976719;28;20067;-71
2023/05/05 00:02:57;;;;;;;2.83;1.60;;;20.50;89.60;;;;;;4976819;28;20034;-72
2023/05/05 00:05:24;;;;;;;3.83;1.80;;;20.50;89.70;;;;;;4977088;28;20086;-72
2023/05/05 00:07:49;;;;;;;4.70;1.60;;;20.50;89.70;;;;;;4977087;28;20023;-72
2023/05/05 00:10:15;;;;;;;2.85;1.52;;;20.50;89.50;;;;;;4976666;28;20035;-71
2023/05/05 00:12:41;;;;;;;2.10;1.35;;;20.40;89.60;;;;;;4976723;28;20030;-71
2023/05/05 00:15:07;;;;;;;2.47;1.60;;;20.40;89.80;;;;;;4991459;28;20035;-71
2023/05/05 00:17:32;;;;;;;1.77;1.42;;;20.40;89.60;;;;;;4976115;28;20019;-71
2023/05/05 00:19:58;;;;;;;2.80;1.33;;;20.30;89.80;;;;;;4976640;28;20391;-71
2023/05/05 00:22:24;;;;;;;2.08;1.50;;;20.30;89.90;;;;;;4976447;28;20026;-71
2023/05/05 00:24:50;;;;;;;2.13;1.70;;;20.20;90.00;;;;;;4976639;28;20033;-71
2023/05/05 00:27:15;;;;;;;1.80;1.58;;;20.30;90.10;;;;;;4976483;28;20473;-73
2023/05/05 00:29:41;;;;;;;4.13;1.70;;;20.20;90.00;;;;;;4976285;28;20027;-71
2023/05/05 00:32:06;;;;;;;3.33;1.63;;;20.20;90.10;;;;;;4975048;28;20073;-72
2023/05/05 00:34:32;;;;;;;2.25;1.50;;;20.20;90.20;;;;;;4976055;28;20046;-72
2023/05/05 00:36:57;;;;;;;1.83;1.42;;;20.10;90.20;;;;;;4976211;28;20085;-72
2023/05/05 00:39:23;;;;;;;1.95;1.40;;;20.00;90.20;;;;;;4976235;28;20041;-71
2023/05/05 00:41:49;;;;;;;2.63;1.73;;;20.00;90.30;;;;;;4976531;28;20051;-72
2023/05/05 00:44:14;;;;;;;2.67;2.03;;;20.00;90.40;;;;;;4976032;28;20109;-74
2023/05/05 00:46:41;;;;;;;2.42;1.90;;;19.90;90.70;;;;;;4976100;28;20395;-72
2023/05/05 00:49:08;;;;;;;3.63;2.30;;;19.90;90.60;;;;;;4975451;28;20023;-71
2023/05/05 00:51:34;;;;;;;2.13;1.90;;;19.90;90.60;;;;;;4976097;28;20397;-72
2023/05/05 00:54:00;;;;;;;4.93;2.58;;;19.90;90.60;;;;;;4974648;28;20019;-73
2023/05/05 00:56:26;;;;;;;3.08;2.10;;;19.80;90.60;;;;;;4976085;28;20077;-71
2023/05/05 00:58:52;;;;;;;5.85;2.75;;;19.80;90.70;;;;;;4975922;28;20027;-74
2023/05/05 01:01:18;;;;;;;3.90;3.17;;;19.90;90.60;;;;;;4975967;28;20543;-73
2023/05/05 01:03:44;;;;;;;5.45;3.80;;;19.80;90.60;;;;;;4973842;28;20015;-71
2023/05/05 01:06:43;;;;;;;7.97;4.13;;;19.70;90.80;;;;;;4975734;28;20085;-71
2023/05/05 01:09:15;;;;;;;5.63;4.13;;;19.70;91.00;;;;;;4975700;28;20034;-74
2023/05/05 01:11:50;;;;;;;;;;;19.60;90.90;;;;;;4976129;28;20031;-71
2023/05/05 01:14:38;;;;;;;4.63;4.05;;;19.70;91.00;;;;;;4975238;28;19910;-71
2023/05/05 01:17:09;;;;;;;6.05;4.25;;;19.60;91.00;;;;;;4975573;28;20077;-73
2023/05/05 01:19:57;;;;;;;6.82;3.97;;;19.50;91.10;;;;;;4975550;28;20380;-71
2023/05/05 01:22:27;;;;;;;5.75;4.65;;;19.50;91.10;;;;;;4975455;28;20030;-71
2023/05/05 01:25:07;;;;;;;7.03;5.10;;;19.50;91.10;;;;;;4975415;28;20074;-73
2023/05/05 01:28:07;;;;;;;6.32;5.18;;;19.50;91.00;;;;;;4975191;28;20488;-72
2023/05/05 01:31:07;;;;;;;6.47;4.28;;;19.60;91.00;;;;;;4958105;28;20039;-72
2023/05/05 01:33:51;;;;;;;5.35;4.47;;;19.50;91.00;;;;;;4975000;28;20031;-72
2023/05/05 01:36:31;;;;;;;4.90;4.30;;;19.50;91.00;;;;;;4975021;28;20043;-71
2023/05/05 01:39:00;;;;;;;4.78;4.13;;;19.40;91.10;;;;;;4973788;28;20023;-72
2023/05/05 01:41:43;;;;;;;6.60;4.47;;;19.40;91.30;;;;;;4974096;28;20033;-72
2023/05/05 01:44:10;;;;;;;4.53;3.70;;;19.30;91.30;;;;;;4975098;28;20030;-71
2023/05/05 01:46:36;;;;;;;5.95;3.63;;;19.40;91.20;;;;;;4975434;28;20027;-71
2023/05/05 01:49:03;;;;;;;4.43;3.50;;;19.30;91.40;;;;;;4975350;28;20038;-71
2023/05/05 01:51:30;;;;;;;4.22;3.58;;;19.20;91.50;;;;;;4973621;28;20049;-71
2023/05/05 01:53:58;;;;;;;4.03;3.25;;;19.30;91.20;;;;;;4974963;28;20154;-71
2023/05/05 01:56:25;;;;;;;6.70;3.50;;;19.40;91.10;;;;;;4974849;28;20031;-71
2023/05/05 01:58:52;;;;;;;4.80;3.05;;;19.40;91.10;;;;;;4973431;28;20023;-73
2023/05/05 02:01:20;;;;;;;4.72;3.10;;;19.30;91.10;;;;;;4973995;28;20117;-71
2023/05/05 02:03:48;;;;;;;4.13;2.92;;;19.40;91.10;;;;;;4973567;28;20054;-71
2023/05/05 02:06:15;;;;;;;6.55;3.42;;;19.30;91.20;;;;;;4975165;28;20027;-73
2023/05/05 02:08:41;;;;;;;6.45;3.03;;;19.30;91.30;;;;;;4974736;28;20030;-71
2023/05/05 02:11:09;;;;;;;4.00;3.13;;;19.30;91.20;;;;;;4974194;28;20113;-71
2023/05/05 02:13:36;;;;;;;5.68;3.40;;;19.30;91.20;;;;;;4974607;28;20018;-72
2023/05/05 02:16:04;;;;;;;4.55;3.35;;;19.10;91.40;;;;;;4974672;28;20126;-73
2023/05/05 02:18:34;;;;;;;5.88;3.00;;;19.10;91.50;;;;;;4973227;28;20448;-71
2023/05/05 02:21:00;;;;;;;4.47;2.95;;;19.20;91.40;;;;;;4974670;28;20525;-73
2023/05/05 02:23:25;;;;;;;5.13;2.72;;;19.20;91.30;;;;;;4974466;28;20023;-71
2023/05/05 02:25:56;;;;;;;5.03;3.15;;;19.20;91.30;;;;;;4977569;28;20033;-72
2023/05/05 02:28:32;;;;;;;3.30;3.00;;;19.10;91.50;;;;;;4993645;28;20014;-71
2023/05/05 02:30:59;;;;;;;6.50;3.55;;;19.10;91.50;;;;;;4993284;28;20023;-71
2023/05/05 02:33:27;;;;;;;5.43;3.25;;;19.20;91.30;;;;;;4993806;28;20097;-73
2023/05/05 02:35:54;;;;;;;5.50;3.15;;;19.20;91.30;;;;;;4993538;28;20046;-74
2023/05/05 02:38:26;;;;;;;4.15;3.08;;;19.20;91.20;;;;;;4993735;28;20034;-72
2023/05/05 02:40:55;;;;;;;6.15;3.25;;;19.20;91.40;;;;;;4993028;28;20054;-74
2023/05/05 02:43:24;;;;;;;3.85;3.40;;;19.20;91.70;;;;;;4993848;28;20472;-73
2023/05/05 02:45:49;;;;;;;5.35;3.90;;;19.10;91.40;;;;;;4993512;28;20046;-71
2023/05/05 02:48:15;;;;;;;6.55;3.78;;;19.10;91.90;;;;;;4993670;28;20022;-71
2023/05/05 02:50:41;;;;;;;4.10;3.05;;;19.00;91.60;;;;;;4993454;28;20037;-73
2023/05/05 02:53:06;;;;;;;5.00;3.63;;;19.00;91.70;;;;;;4993564;28;20137;-72
2023/05/05 02:55:44;;;;;;;5.85;3.88;;;19.00;91.80;;;;;;4993130;28;20088;-72
2023/05/05 02:58:42;;;;;;;4.78;3.67;;;19.00;91.70;;;;;;4993547;28;20026;-71
2023/05/05 03:01:31;;;;;;;5.22;3.70;;;19.00;91.70;;;;;;4993435;28;20121;-73
2023/05/05 03:04:11;;;;;;;5.03;4.07;;;19.00;91.80;;;;;;4993540;28;20061;-70
2023/05/05 03:06:42;;;;;;;4.53;3.78;;;18.90;91.90;;;;;;4993229;28;20085;-71
2023/05/05 03:09:29;;;;;;;4.65;3.75;;;18.90;91.90;;;;;;4993090;28;20519;-74
2023/05/05 03:12:12;;;;;;;4.20;3.70;;;18.90;91.90;;;;;;4994700;28;20490;-73
2023/05/05 03:14:42;;;;;;;4.82;3.88;;;18.80;92.00;;;;;;4997323;28;20096;-73
2023/05/05 03:17:12;;;;;;;6.15;4.18;;;18.90;91.90;;;;;;4997338;28;20427;-73
2023/05/05 03:19:41;;;;;;;5.88;4.05;;;18.80;91.90;;;;;;4997142;28;20155;-73
2023/05/05 03:22:07;;;;;;;8.23;3.95;;;18.80;92.00;;;;;;4997181;28;20109;-73
2023/05/05 03:24:32;;;;;;;5.85;4.55;;;18.80;92.00;;;;;;4996908;28;20424;-73
2023/05/05 03:26:58;;;;;;;4.82;4.20;;;18.80;92.20;;;;;;4996932;28;20105;-72
2023/05/05 03:29:24;;;;;;;5.68;4.57;;;18.80;92.20;;;;;;4996297;28;20026;-71
2023/05/05 03:31:50;;;;;;;5.90;4.57;;;18.80;92.20;;;;;;4997170;28;20169;-71
2023/05/05 03:34:15;;;;;;;5.20;4.25;;;18.80;92.30;;;;;;4996924;28;20034;-70
2023/05/05 03:36:41;;;;;;;4.85;4.45;;;18.80;92.30;;;;;;4996730;28;20057;-72
2023/05/05 03:39:07;;;;;;;6.13;4.50;;;18.80;92.30;;;;;;4997077;28;20014;-70
2023/05/05 03:41:32;;;;;;;5.20;4.70;;;18.80;92.40;;;;;;4995496;28;20023;-71
2023/05/05 03:43:58;;;;;;;5.18;4.65;;;18.70;92.40;;;;;;4997264;28;20141;-73
2023/05/05 03:46:24;;;;;;;6.82;5.53;;;18.70;92.50;;;;;;4996581;28;20038;-70
2023/05/05 03:48:50;;;;;;;6.20;4.80;;;18.70;92.50;;;;;;4996663;28;20105;-72
2023/05/05 03:51:16;;;;;;;4.90;4.22;;;18.80;92.50;;;;;;4996976;28;20375;-71
2023/05/05 03:53:41;;;;;;;6.43;4.30;;;18.80;92.40;;;;;;4996421;28;20528;-74
2023/05/05 03:56:07;;;;;;;5.20;4.60;;;18.70;92.60;;;;;;4995139;28;20034;-71
2023/05/05 03:58:33;;;;;;;5.55;5.05;;;18.60;92.60;;;;;;4996533;28;20427;-75
2023/05/05 04:00:58;;;;;;;6.10;4.40;;;18.50;92.90;;;;;;4996479;28;20061;-72
2023/05/05 04:03:24;;;;;;;5.68;5.03;;;18.50;93.10;;;;;;4996556;28;20027;-72
2023/05/05 04:05:50;;;;;;;7.13;4.97;;;18.50;93.10;;;;;;4996333;28;20038;-72
2023/05/05 04:08:15;;;;;;;6.32;5.68;;;18.50;93.10;;;;;;4996136;28;20026;-71
2023/05/05 04:10:41;;;;;;;5.47;4.97;;;18.40;93.10;;;;;;4996274;28;20054;-71
2023/05/05 04:13:07;;;;;;;6.28;5.55;;;18.30;93.30;;;;;;4996058;28;20022;-70
2023/05/05 04:15:33;;;;;;;6.18;4.90;;;18.30;93.60;;;;;;4996257;28;20121;-74
2023/05/05 04:17:59;;;;;;;7.63;5.28;;;18.20;93.70;;;;;;4996249;28;20098;-71
2023/05/05 04:20:25;;;;;;;7.35;5.88;;;18.20;93.80;;;;;;4992664;28;20099;-71
2023/05/05 04:22:50;;;;;;;6.25;5.65;;;18.10;93.90;;;;;;4994541;28;20044;-70
2023/05/05 04:25:16;;;;;;;7.55;5.93;;;18.10;94.00;;;;;;4996467;28;20026;-70
2023/05/05 04:27:42;;;;;;;6.60;5.75;;;18.10;94.10;;;;;;4994523;28;20081;-70
2023/05/05 04:30:08;;;;;;;6.35;5.40;;;18.00;94.10;;;;;;4997054;28;20034;-70
2023/05/05 04:32:34;;;;;;;7.13;5.90;;;18.10;94.10;;;;;;4990534;28;20094;-71
2023/05/05 04:34:59;;;;;;;8.55;5.75;;;18.10;94.10;;;;;;4976354;28;20516;-70
2023/05/05 04:37:25;;;;;;;11.20;5.80;;;18.00;94.10;;;;;;4988212;28;20030;-72
2023/05/05 04:39:51;;;;;;;5.72;5.10;;;18.10;93.60;;;;;;4999602;28;20348;-75
2023/05/05 04:42:17;;;;;;;6.82;5.40;;;18.30;92.90;;;;;;5005760;28;20026;-73
2023/05/05 04:44:42;;;;;;;7.28;5.13;;;18.40;92.60;;;;;;4990540;28;20034;-73
2023/05/05 04:47:08;;;;;;;6.10;5.50;;;18.50;92.20;;;;;;4989146;28;20442;-74
2023/05/05 04:49:33;;;;;;;7.00;5.93;;;18.50;92.30;;;;;;4995440;28;20097;-73
2023/05/05 04:51:59;;;;;;;7.65;5.13;;;18.50;92.20;;;;;;4995173;28;20030;-74
2023/05/05 04:54:25;;;;;;;8.45;5.80;;;18.50;92.40;;;;;;4984850;28;20039;-77
2023/05/05 04:56:50;;;;;;;8.60;5.70;;;18.50;92.40;;;;;;4991041;28;20035;-76
2023/05/05 04:59:16;;;;;;;6.40;5.28;;;18.60;92.30;;;;;;4992551;28;20018;-75
2023/05/05 05:01:42;;;;;;;6.28;5.68;;;18.60;92.50;;;;;;4995336;28;20084;-72
2023/05/05 05:04:09;;;;;;;8.77;5.50;;;18.60;92.60;;;;;;4993931;28;20383;-73
2023/05/05 05:06:35;;;;;;;6.85;5.25;;;18.60;92.40;;;;;;4993787;28;20030;-74
2023/05/05 05:09:00;;;;;;;7.30;5.93;;;18.60;92.50;;;;;;4994868;28;20033;-76
2023/05/05 05:11:26;;;;;;;9.95;5.80;;;18.60;92.50;;;;;;4995165;28;20030;-77
2023/05/05 05:13:52;;;;;;;7.03;4.95;;;18.60;92.60;;;;;;4994188;28;20380;-73
2023/05/05 05:16:17;;;;;;;6.00;5.07;;;18.60;92.90;;;;;;4995083;28;20117;-75
2023/05/05 05:18:43;;;;;;;6.78;5.30;;;18.60;92.70;;;;;;4991115;28;20030;-75
2023/05/05 05:21:09;;;;;;;7.82;5.57;;;18.60;92.70;;;;;;4985437;28;20361;-76
2023/05/05 05:23:34;;;;;;;6.70;5.40;;;18.60;92.80;;;;;;4988423;28;20075;-76
2023/05/05 05:26:00;;;;;;;5.13;4.63;;;18.60;92.80;;;;;;4985478;28;20535;-73
2023/05/05 05:28:26;;;;;;;6.78;5.40;;;18.60;93.10;;;;;;4992475;28;20031;-75
2023/05/05 05:30:51;;;;;;;4.53;4.13;;;18.70;92.80;;;;;;4991543;28;20420;-75
2023/05/05 05:33:17;;;;;;;4.38;2.85;;;18.60;92.60;;;;;;4999350;28;20055;-76
2023/05/05 05:35:43;;;;;;;2.30;2.05;;;18.60;92.30;;;;;;4987165;28;20030;-75
2023/05/05 05:38:09;;;;;;;4.35;2.38;;;18.60;92.10;;;;;;4998791;28;20386;-74
2023/05/05 05:40:36;;;;;;;2.72;1.55;;;18.70;92.00;;;;;;4989645;28;20480;-75
2023/05/05 05:43:02;;;;;;;4.70;1.63;;;18.70;91.90;;;;;;4993163;28;20143;-71
2023/05/05 05:45:27;;;;;;;25.77;2.88;;;18.80;91.90;;;;;;4997897;28;20383;-78
2023/05/05 05:47:53;;;;;;;8.60;2.20;;;18.80;91.80;;;;;;5010842;28;20073;-82
2023/05/05 05:50:19;;;;;;;4.38;1.90;;;18.80;91.70;;;;;;4988237;28;21541;-82
2023/05/05 05:52:45;;;;;;;3.72;1.85;;;18.90;91.70;;;;;;4990290;28;20031;-78
2023/05/05 05:55:11;;;;;;;4.82;1.92;;;19.00;91.60;;;;;;4996048;28;20427;-75
2023/05/05 05:57:36;;;;;;;3.08;2.33;;;19.00;91.70;;;;;;4992499;28;20030;-75
2023/05/05 06:00:02;;;;;;;5.75;2.92;;;19.00;92.00;;;;;;4990879;28;20033;-77
2023/05/05 06:02:28;;;;;;;3.20;2.17;;;19.00;92.20;;;;;;4994541;28;20376;-79
2023/05/05 06:04:54;;;;;;;4.55;3.13;;;19.00;92.20;;;;;;4993150;28;20022;-78
2023/05/05 06:07:20;;;;;;;6.40;4.03;;;19.00;92.50;;;;;;4992198;28;20575;-78
2023/05/05 06:09:45;;;;;;;5.72;3.80;;;19.10;92.60;;;;;;5002146;28;20045;-75
2023/05/05 06:12:11;;;;;;;5.88;2.72;;;19.10;92.60;;;;;;4993786;28;20373;-80
2023/05/05 06:14:36;;;;;;;6.88;2.65;;;19.10;92.40;;;;;;4994138;28;20121;-80
2023/05/05 06:17:02;;;;;;;6.55;3.33;;;19.10;92.30;;;;;;4992452;28;20038;-75
2023/05/05 06:19:28;;;;;;;8.43;2.90;;;19.10;92.60;;;;;;4989503;28;20084;-80
2023/05/05 06:21:54;;;;;;;12.95;3.00;;;19.10;92.60;;;;;;4993040;28;20308;-82
2023/05/05 06:24:19;;;;;;;9.68;3.50;;;19.10;92.70;;;;;;4989955;28;20459;-81
2023/05/05 06:26:45;;;;;;;10.43;3.25;;;19.20;92.70;;;;;;4992221;28;20098;-76
2023/05/05 06:29:11;;;;;;;7.78;3.85;;;19.20;92.90;;;;;;4992819;28;20069;-77
2023/05/05 06:31:36;;;;;;;10.48;2.88;;;19.20;93.30;;;;;;4993261;28;20030;-81
2023/05/05 06:34:02;;;;;;;13.15;3.42;;;19.20;92.90;;;;;;4993366;28;20022;-77
2023/05/05 06:36:27;;;;;;;9.95;3.42;;;19.30;93.00;;;;;;4992226;28;20057;-80
2023/05/05 06:38:53;;;;;;;14.75;2.92;;;19.30;92.70;;;;;;4993459;28;20026;-80
2023/05/05 06:41:18;;;;;;;9.88;3.17;;;19.30;92.60;;;;;;4992289;28;20041;-80
2023/05/05 06:43:44;;;;;;;10.27;2.38;;;19.30;92.60;;;;;;4993793;28;20379;-80
2023/05/05 06:46:10;;;;;;;7.32;2.80;;;19.40;92.70;;;;;;4992787;28;20030;-78
2023/05/05 06:48:36;;;;;;;8.23;2.95;;;19.40;92.60;;;;;;4993618;28;20030;-79
2023/05/05 06:51:01;;;;;;;7.63;2.88;;;19.40;92.70;;;;;;4993541;28;20092;-80
2023/05/05 06:53:27;;;;;;;11.65;2.97;;;19.50;92.80;;;;;;4993468;28;20030;-81
2023/05/05 06:55:53;;;;;;;5.38;2.38;;;19.50;93.00;;;;;;4993299;28;20101;-83
2023/05/05 06:58:19;;;;;;;8.63;3.22;;;19.50;92.60;;;;;;4993505;28;20468;-79
2023/05/05 07:00:46;;;;;;;9.60;2.33;;;19.60;92.80;;;;;;4993157;28;20048;-82
2023/05/05 07:03:11;;;;;;;6.57;3.00;;;19.60;92.30;;;;;;4993458;28;20022;-81
2023/05/05 07:05:37;;;;;;;7.43;2.33;;;19.70;92.50;;;;;;4993110;28;20396;-79
2023/05/05 07:08:03;;;;;;;7.38;2.30;;;19.70;92.40;;;;;;4993326;28;20080;-81
2023/05/05 07:10:28;;;;;;;8.70;2.42;;;19.70;92.00;;;;;;4993185;28;20106;-80
2023/05/05 07:12:54;;;;;;;5.63;2.53;;;19.70;92.40;;;;;;4993426;28;20025;-82
2023/05/05 07:15:21;;;;;;;5.35;2.35;;;19.70;92.40;;;;;;4992814;28;20475;-81
2023/05/05 07:17:46;;;;;;;6.75;2.63;;;19.70;92.00;;;;;;4993396;28;20029;-81
2023/05/05 07:20:12;;;;;;;5.13;2.10;;;19.80;91.80;;;;;;4993260;28;20383;-83
2023/05/05 07:22:38;;;;;;;5.05;2.10;;;19.80;91.90;;;;;;4991894;28;20026;-82
2023/05/05 07:25:04;;;;;;;4.63;1.88;;;19.80;91.90;;;;;;4993216;28;20042;-81
2023/05/05 07:27:31;;;;;;;5.40;2.13;;;19.90;91.70;;;;;;4993134;28;20391;-81
2023/05/05 07:29:56;;;;;;;4.80;2.20;;;19.90;91.60;;;;;;4991909;28;20395;-79
2023/05/05 07:32:22;;;;;;;5.50;1.70;;;19.90;91.70;;;;;;4993048;28;20026;-82
2023/05/05 07:34:48;;;;;;;6.18;1.75;;;19.90;91.60;;;;;;4993005;28;20066;-79
2023/05/05 07:37:13;;;;;;;4.85;1.88;;;19.90;91.40;;;;;;4992920;28;20045;-81
2023/05/05 07:39:39;;;;;;;4.47;2.22;;;19.90;91.40;;;;;;4993028;28;20033;-76
2023/05/05 07:42:06;;;;;;;6.32;2.58;;;19.90;91.50;;;;;;4992640;28;20439;-81
2023/05/05 07:44:32;;;;;;;4.82;2.65;;;19.90;91.60;;;;;;4992831;28;20046;-82
2023/05/05 07:46:57;;;;;;;6.93;2.50;;;19.90;92.00;;;;;;4992961;28;20068;-79
2023/05/05 07:49:23;;;;;;;9.45;2.03;;;19.90;91.80;;;;;;4993428;28;20054;-78
2023/05/05 07:51:49;;;;;;;6.38;2.53;;;20.00;91.50;;;;;;4992825;28;20066;-79
2023/05/05 07:54:16;;;;;;;7.18;2.25;;;19.90;91.70;;;;;;4993081;28;20057;-78
2023/05/05 07:56:41;;;;;;;6.05;2.17;;;19.90;91.70;;;;;;4991513;28;20369;-82
2023/05/05 07:59:07;;;;;;;9.70;3.00;;;20.00;91.80;;;;;;4994352;28;20029;-79
2023/05/05 08:01:33;;;;;;;7.47;2.17;;;20.00;92.00;;;;;;4996422;28;20027;-78
2023/05/05 08:03:58;;;;;;;4.25;1.98;;;20.00;91.60;;;;;;5010832;28;20023;-79
2023/05/05 08:06:24;;;;;;;5.30;2.50;;;20.00;91.40;;;;;;5011234;28;20077;-76
2023/05/05 08:08:52;;;;;;;4.43;2.50;;;20.00;91.80;;;;;;4996321;28;20026;-78
2023/05/05 08:11:18;;;;;;;4.00;1.92;;;20.00;91.40;;;;;;4996189;28;20407;-77
2023/05/05 08:13:44;;;;;;;4.90;2.17;;;20.00;91.30;;;;;;4995992;28;20023;-78
2023/05/05 08:16:10;;;;;;;3.97;1.80;;;20.00;91.50;;;;;;4996238;28;20440;-76
2023/05/05 08:18:37;;;;;;;5.20;2.00;;;20.00;91.20;;;;;;4995946;28;20022;-80
2023/05/05 08:21:07;;;;;;;4.13;2.10;;;20.10;91.30;;;;;;4996085;28;20497;-79
2023/05/05 08:23:34;;;;;;;5.25;2.42;;;20.00;91.60;;;;;;4995933;28;20097;-82
2023/05/05 08:26:01;;;;;;;7.00;2.70;;;20.00;91.80;;;;;;4996117;28;20530;-79
2023/05/05 08:28:27;;;;;;;3.60;1.77;;;20.00;91.80;;;;;;4995937;28;20456;-78
2023/05/05 08:30:52;;;;;;;3.08;1.52;;;20.00;91.40;;;;;;4996017;28;20026;-76
2023/05/05 08:33:18;;;;;;;4.57;2.70;;;20.10;91.20;;;;;;4994481;28;20018;-77
2023/05/05 08:35:44;;;;;;;4.65;2.50;;;20.10;91.40;;;;;;4995432;28;20140;-77
2023/05/05 08:38:10;;;;;;;3.92;2.15;;;20.00;91.30;;;;;;4994295;28;20030;-76
2023/05/05 08:40:38;;;;;;;5.80;1.65;;;20.10;91.50;;;;;;4995825;28;20053;-76
2023/05/05 08:43:04;;;;;;;3.70;1.70;;;20.10;91.10;;;;;;4995359;28;20019;-77
2023/05/05 08:45:30;;;;;;;4.22;2.30;;;20.10;91.20;;;;;;4995723;28;20076;-77
2023/05/05 08:48:00;;;;;;;8.77;3.00;;;20.10;91.60;;;;;;4994179;28;20034;-78
2023/05/05 08:50:27;;;;;;;5.63;2.47;;;20.10;92.30;;;;;;4995452;28;20022;-76
2023/05/05 08:53:06;;;;;;;5.50;2.47;;;20.00;91.80;;;;;;4995360;28;20025;-77
2023/05/05 08:55:37;;;;;;;7.28;3.13;;;20.10;92.00;;;;;;4995512;28;20035;-78
2023/05/05 08:58:03;;;;;;;6.78;3.10;;;20.10;92.30;;;;;;4995006;28;20019;-76
2023/05/05 09:00:29;;;;;;;4.35;2.00;;;20.10;92.50;;;;;;4995520;28;20037;-78
2023/05/05 09:02:56;;;;;;;5.25;2.22;;;20.10;92.10;;;;;;4994944;28;20033;-75
2023/05/05 09:05:23;;;;;;;4.30;2.33;;;20.10;92.00;;;;;;4995370;28;20053;-77
2023/05/05 09:07:49;;;;;;;3.40;1.75;;;20.10;91.70;;;;;;4995144;28;20468;-76
2023/05/05 09:10:15;;;;;;;10.90;2.67;;;20.10;91.40;;;;;;4994756;28;20033;-74
2023/05/05 09:12:41;;;;;;;3.20;1.50;;;20.10;92.70;;;;;;4994828;28;20018;-72
2023/05/05 09:15:11;;;;;;;4.78;1.70;;;20.20;92.40;;;;;;4995449;28;20517;-74
2023/05/05 09:17:38;;;;;;;3.80;2.20;;;20.20;92.50;;;;;;4994914;28;20023;-72
2023/05/05 09:20:06;;;;;;;5.20;2.00;;;20.20;92.50;;;;;;4994960;28;20556;-73
2023/05/05 09:22:45;;;;;;;5.40;1.95;;;20.20;92.40;;;;;;4995045;28;20498;-72
2023/05/05 09:25:12;;;;;;;5.10;1.95;;;20.20;92.60;;;;;;4994944;28;20353;-73
2023/05/05 09:27:41;;;;;;;5.68;1.77;;;20.20;93.00;;;;;;4993411;28;20029;-72
2023/05/05 09:30:08;;;;;;;5.50;1.85;;;20.20;92.40;;;;;;4994624;28;20026;-72
2023/05/05 09:32:45;;;;;;;6.60;2.00;;;20.20;92.10;;;;;;4993990;28;20026;-73
2023/05/05 09:35:10;;;;;;;6.40;1.92;;;20.20;92.60;;;;;;4994595;28;20042;-73
2023/05/05 09:37:37;;;;;;;5.05;1.30;;;20.20;92.40;;;;;;4993276;28;20073;-72
2023/05/05 09:40:04;;;;;;;2.35;0.85;;;20.20;92.60;;;;;;4994924;28;20053;-73
2023/05/05 09:42:30;;;;;;;2.20;0.93;;;20.20;92.00;;;;;;4994355;28;20026;-73
2023/05/05 09:44:56;;;;;;;4.93;1.25;;;20.20;92.20;;;;;;4994350;28;20514;-74
2023/05/05 09:47:36;;;;;;;5.00;1.73;;;20.30;91.80;;;;;;4994645;28;20493;-72
2023/05/05 09:50:02;;;;;;;3.22;0.90;;;20.30;92.00;;;;;;4994104;28;20428;-73
2023/05/05 09:52:29;;;;;;;3.28;1.08;;;20.30;92.00;;;;;;4994451;28;20476;-74
2023/05/05 09:54:56;;;;;;;3.38;1.10;;;20.30;92.00;;;;;;4993863;28;20030;-73
2023/05/05 09:57:30;;;;;;;3.20;1.13;;;20.30;92.00;;;;;;4994246;28;20015;-73
2023/05/05 10:00:02;;;;;;;3.55;1.08;;;20.30;91.50;;;;;;4992809;28;20392;-73
2023/05/05 10:02:33;;;;;;;3.90;1.17;;;20.40;91.50;;;;;;4994256;28;20025;-73
2023/05/05 10:05:09;;;;;;;6.50;1.50;;;20.40;91.30;;;;;;4994049;28;20022;-72
2023/05/05 10:07:36;;;;;;;2.58;1.10;;;20.40;91.80;;;;;;4994206;28;20038;-72
2023/05/05 10:10:08;;;;;;;2.47;1.15;;;20.40;91.80;;;;;;4993851;28;20018;-73
2023/05/05 10:12:37;;;;;;;2.20;0.98;;;20.40;91.80;;;;;;4994058;28;20022;-74
2023/05/05 10:15:05;;;;;;;2.38;1.00;;;20.50;91.60;;;;;;4993799;28;20027;-73
2023/05/05 10:17:34;;;;;;;3.35;1.35;;;20.50;91.30;;;;;;4994042;28;20109;-74
2023/05/05 10:20:00;;;;;;;3.00;1.10;;;20.50;91.50;;;;;;4993672;28;20104;-72
2023/05/05 10:22:31;;;;;;;3.85;1.30;;;20.50;91.40;;;;;;4991945;28;20027;-74
2023/05/05 10:25:08;;;;;;;3.45;1.02;;;20.50;91.30;;;;;;4993616;28;20018;-73
2023/05/05 10:27:42;;;;;;;3.78;1.45;;;20.50;91.10;;;;;;4991923;28;20029;-73
2023/05/05 10:30:15;;;;;;;2.85;0.90;;;20.50;91.50;;;;;;4994093;28;20367;-73
2023/05/05 10:32:49;;;;;;;2.80;1.10;;;20.60;91.00;;;;;;4993782;28;20029;-73
2023/05/05 10:35:23;;;;;;;6.60;1.60;;;20.60;91.00;;;;;;4991659;28;20035;-73
2023/05/05 10:37:49;;;;;;;6.25;1.30;;;20.60;91.00;;;;;;4992347;28;20036;-71
2023/05/05 10:40:16;;;;;;;3.65;1.90;;;20.60;91.00;;;;;;4984335;28;20105;-70
2023/05/05 10:42:42;;;;;;;6.32;1.38;;;20.70;91.30;;;;;;4976909;28;20114;-70
2023/05/05 10:45:08;;;;;;;3.55;1.20;;;20.70;90.90;;;;;;4975831;28;20559;-70
2023/05/05 10:47:35;;;;;;;4.40;2.28;;;20.80;90.90;;;;;;4974211;28;20388;-70
2023/05/05 10:50:39;;;;;;;6.75;1.60;;;20.80;91.50;;;;;;4985244;28;20056;-71
2023/05/05 10:53:17;;;;;;;6.15;1.95;;;20.80;91.10;;;;;;4989152;28;20039;-72
2023/05/05 10:55:47;;;;;;;8.25;1.90;;;20.80;91.20;;;;;;4987949;28;20069;-71
2023/05/05 10:58:32;;;;;;;9.75;2.05;;;20.90;90.90;;;;;;4982667;28;20101;-72
2023/05/05 11:00:58;;;;;;;6.07;2.75;;;20.90;90.80;;;;;;4992709;28;20379;-71
2023/05/05 11:03:25;;;;;;;9.30;1.63;;;20.90;90.90;;;;;;4992091;28;20543;-71
2023/05/05 11:06:02;;;;;;;7.47;2.03;;;21.00;90.80;;;;;;4992125;28;20022;-71
2023/05/05 11:08:49;;;;;;;13.35;2.17;;;21.00;90.80;;;;;;4989668;28;20065;-71
2023/05/05 11:11:15;;;;;;;9.77;1.77;;;21.00;90.90;;;;;;4991540;28;20074;-71
2023/05/05 11:13:40;;;;;;;5.25;1.60;;;21.00;90.80;;;;;;4992531;28;20066;-72
2023/05/05 11:16:42;;;;;;;6.78;1.63;;;21.00;90.80;;;;;;4992176;28;20143;-72
2023/05/05 11:19:43;;;;;;;4.97;1.20;;;21.00;90.80;;;;;;4991987;28;20033;-72
2023/05/05 11:22:09;;;;;;;5.68;1.65;;;21.00;90.80;;;;;;4981040;28;20037;-71
2023/05/05 11:24:35;;;;;;;5.78;1.60;;;21.10;90.80;;;;;;4979685;28;20023;-72
2023/05/05 11:27:02;;;;;;;4.25;1.40;;;21.00;90.90;;;;;;4985306;28;20030;-71
2023/05/05 11:30:02;;;;;;;3.50;1.40;;;21.00;90.90;;;;;;4990951;28;20026;-71
2023/05/05 11:32:28;;;;;;;4.85;1.65;;;21.00;90.90;;;;;;4992887;28;20050;-72
2023/05/05 11:34:54;;;;;;;2.45;1.33;;;21.00;91.00;;;;;;4996244;28;20108;-71
2023/05/05 11:37:23;;;;;;;4.43;1.60;;;21.00;90.70;;;;;;4983154;28;20035;-72
2023/05/05 11:40:00;;;;;;;2.58;1.20;;;21.00;90.90;;;;;;4976720;28;20062;-72
2023/05/05 11:42:26;;;;;;;4.38;1.63;;;21.10;90.50;;;;;;4976807;28;20130;-71
2023/05/05 11:44:52;;;;;;;5.80;1.50;;;21.10;90.50;;;;;;4976869;28;20025;-71
2023/05/05 11:47:18;;;;;;;4.78;1.50;;;21.10;90.70;;;;;;4986557;28;20022;-72
2023/05/05 11:49:43;;;;;;;3.15;1.38;;;21.10;90.80;;;;;;4995699;28;20033;-72
2023/05/05 11:52:13;;;;;;;3.85;1.90;;;21.10;90.70;;;;;;4994477;28;20027;-72
2023/05/05 11:54:40;;;;;;;5.40;1.67;;;21.10;91.00;;;;;;4996193;28;20057;-72
2023/05/05 11:57:07;;;;;;;5.43;2.10;;;21.10;90.70;;;;;;4994930;28;20041;-73
2023/05/05 11:59:36;;;;;;;6.18;2.38;;;21.10;91.20;;;;;;4981921;28;20019;-72
2023/05/05 12:02:02;;;;;;;4.95;1.65;;;21.10;91.30;;;;;;4976169;28;20026;-72
2023/05/05 12:04:30;;;;;;;3.28;1.17;;;21.10;90.90;;;;;;4983902;28;20072;-72
2023/05/05 12:06:57;;;;;;;5.35;1.17;;;21.10;91.00;;;;;;4994934;28;20480;-72
2023/05/05 12:09:23;;;;;;;4.88;1.02;;;21.10;90.90;;;;;;4993888;28;20118;-72
2023/05/05 12:11:53;;;;;;;5.80;1.10;;;21.10;91.00;;;;;;4995066;28;20532;-72
2023/05/05 12:14:19;;;;;;;5.78;1.27;;;21.10;91.00;;;;;;4995190;28;20045;-72
2023/05/05 12:17:06;;;;;;;4.78;2.30;;;21.20;91.00;;;;;;4995315;28;20026;-73
2023/05/05 12:19:32;;;;;;;5.10;1.13;;;21.10;91.00;;;;;;4995472;28;20482;-71
2023/05/05 12:22:04;;;;;;;4.70;1.15;;;21.10;90.90;;;;;;4994589;28;20057;-71
2023/05/05 12:24:29;;;;;;;6.87;1.33;;;21.20;90.90;;;;;;4995839;28;20022;-72
2023/05/05 12:27:12;;;;;;;3.25;1.23;;;21.20;90.80;;;;;;4994920;28;20030;-72
2023/05/05 12:29:37;;;;;;;3.63;1.15;;;21.20;90.80;;;;;;4994599;28;20487;-72
2023/05/05 12:32:03;;;;;;;3.03;0.75;;;21.10;90.80;;;;;;4994662;28;20034;-72
2023/05/05 12:34:30;;;;;;;4.32;1.00;;;21.10;90.70;;;;;;4995349;28;20105;-72
2023/05/05 12:36:56;;;;;;;3.28;0.88;;;21.10;90.60;;;;;;4995259;28;20081;-72
2023/05/05 12:39:21;;;;;;;2.92;0.80;;;21.20;90.60;;;;;;4993200;28;20033;-71
2023/05/05 12:41:48;;;;;;;4.60;1.08;;;21.20;90.50;;;;;;4995316;28;20380;-72
2023/05/05 12:44:13;;;;;;;3.95;1.02;;;21.30;90.40;;;;;;4992492;28;20410;-72
2023/05/05 12:46:47;;;;;;;3.95;1.13;;;21.20;90.30;;;;;;4993378;28;20026;-70
2023/05/05 12:49:13;;;;;;;5.65;1.20;;;21.20;90.20;;;;;;4994269;28;20879;-71
2023/05/05 12:51:52;;;;;;;3.55;0.80;;;21.30;90.20;;;;;;4993525;28;20173;-71